createdAt,value
2023-06-10T00:00:15.396Z,63.1
2023-06-10T00:04:04.043Z,63.7
2023-06-10T00:06:52.331Z,64.7
2023-06-10T00:09:40.091Z,65.1
2023-06-10T00:12:27.877Z,65.5
2023-06-10T00:15:16.839Z,65.7
2023-06-10T00:18:04.662Z,66
2023-06-10T00:20:55.608Z,66.5
2023-06-10T00:23:50.151Z,66.9
2023-06-10T00:26:39.406Z,67.3
2023-06-10T00:29:27.536Z,68.2
2023-06-10T00:32:15.084Z,68.4
2023-06-10T00:35:02.676Z,68.7
2023-06-10T00:37:52.082Z,69.4
2023-06-10T00:40:39.934Z,69.3
2023-06-10T00:43:28.670Z,69.8
2023-06-10T00:46:16.435Z,69.8
2023-06-10T00:49:04.506Z,70.1
2023-06-10T00:51:52.508Z,70.7
2023-06-10T00:54:40.183Z,70.6
2023-06-10T00:57:28.088Z,71.3
2023-06-10T01:00:15.677Z,71.4
2023-06-10T01:03:04.482Z,71.8
2023-06-10T01:05:53.437Z,72.1
2023-06-10T01:08:55.274Z,72
2023-06-10T01:11:51.486Z,72.8
2023-06-10T01:14:46.269Z,72.8
2023-06-10T01:17:34.675Z,72.9
2023-06-10T01:20:38.103Z,73.2
2023-06-10T01:23:25.792Z,73.6
2023-06-10T01:26:13.800Z,74
2023-06-10T01:29:02.063Z,73.8
2023-06-10T01:31:57.410Z,74.6
2023-06-10T01:34:52.321Z,74.5
2023-06-10T01:37:41.983Z,74.6
2023-06-10T01:40:32.616Z,74.8
2023-06-10T01:43:20.650Z,74.8
2023-06-10T01:46:08.851Z,74.8
2023-06-10T01:48:56.554Z,74.9
2023-06-10T01:51:43.960Z,74.9
2023-06-10T01:54:31.488Z,75.1
2023-06-10T01:57:20.298Z,75.5
2023-06-10T02:00:07.740Z,76.1
2023-06-10T02:02:56.934Z,76
2023-06-10T02:05:44.602Z,76.5
2023-06-10T02:08:32.098Z,76.9
2023-06-10T02:11:19.596Z,76.7
2023-06-10T02:14:07.495Z,76.5
2023-06-10T02:16:55.002Z,76.6
2023-06-10T02:19:43.180Z,77.3
2023-06-10T02:22:38.408Z,76.9
2023-06-10T02:25:26.440Z,77.3
2023-06-10T02:28:13.892Z,77.6
2023-06-10T02:31:01.776Z,77.8
2023-06-10T02:33:49.326Z,77.8
2023-06-10T02:36:38.083Z,77.5
2023-06-10T02:39:25.518Z,78.1
2023-06-10T02:42:13.768Z,77.5
2023-06-10T02:45:01.158Z,77.3
2023-06-10T02:47:50.561Z,76.7
2023-06-10T02:50:39.084Z,76.2
2023-06-10T02:53:26.643Z,76.7
2023-06-10T02:56:14.106Z,76.2
2023-06-10T02:59:03.192Z,76.3
2023-06-10T03:01:52.925Z,76
2023-06-10T03:04:40.643Z,76.3
2023-06-10T03:07:29.187Z,76.3
2023-06-10T03:10:17.861Z,76.5
2023-06-10T03:13:05.386Z,76.9
2023-06-10T03:15:52.856Z,77.3
2023-06-10T03:18:40.273Z,77.3
2023-06-10T03:21:27.731Z,77.5
2023-06-10T03:24:15.681Z,77.6
2023-06-10T03:27:03.754Z,77.1
2023-06-10T03:29:52.925Z,77.5
2023-06-10T03:32:40.647Z,77.6
2023-06-10T03:35:28.830Z,77.6
2023-06-10T03:38:18.162Z,77.4
2023-06-10T03:41:06.069Z,77.2
2023-06-10T03:43:53.477Z,77.1
2023-06-10T03:46:41.179Z,77.2
2023-06-10T03:49:29.971Z,77.3
2023-06-10T03:52:18.669Z,77
2023-06-10T03:55:06.264Z,77
2023-06-10T03:57:54.471Z,76.5
2023-06-10T04:00:42.207Z,76.5
2023-06-10T04:03:31.333Z,76.4
2023-06-10T04:06:18.883Z,76.4
2023-06-10T04:09:08.241Z,76.1
2023-06-10T04:11:55.897Z,76
2023-06-10T04:14:43.363Z,75.5
2023-06-10T04:17:30.965Z,75.4
2023-06-10T04:20:18.407Z,75.1
2023-06-10T04:23:05.984Z,74.7
2023-06-10T04:25:53.357Z,75
2023-06-10T04:28:40.851Z,74.9
2023-06-10T04:31:29.639Z,74.8
2023-06-10T04:34:17.965Z,74.2
2023-06-10T04:37:05.319Z,73.6
2023-06-10T04:39:53.252Z,74.1
2023-06-10T04:42:40.594Z,73
2023-06-10T04:45:28.395Z,72.6
2023-06-10T04:48:16.799Z,72.2
2023-06-10T04:51:04.939Z,72.2
2023-06-10T04:53:52.644Z,71.7
2023-06-10T04:56:41.034Z,71.4
2023-06-10T04:59:28.475Z,71.4
2023-06-10T05:02:16.777Z,71.4
2023-06-10T05:05:04.297Z,71.6
2023-06-10T05:07:52.560Z,70.8
2023-06-10T05:10:40.060Z,70.3
2023-06-10T05:13:27.617Z,70.1
2023-06-10T05:16:15.369Z,69.6
2023-06-10T05:19:04.358Z,68.8
2023-06-10T05:21:53.121Z,68.8
2023-06-10T05:24:40.657Z,68.6
2023-06-10T05:27:29.356Z,68.6
2023-06-10T05:30:16.902Z,68.5
2023-06-10T05:33:04.722Z,68.5
2023-06-10T05:35:52.629Z,68.1
2023-06-10T05:38:40.247Z,67.8
2023-06-10T05:41:27.746Z,68.4
2023-06-10T05:44:15.241Z,67.8
2023-06-10T05:47:02.737Z,67.7
2023-06-10T05:49:51.566Z,68.2
2023-06-10T05:52:41.134Z,67.7
2023-06-10T05:55:28.561Z,67.7
2023-06-10T05:58:15.897Z,67.9
2023-06-10T06:01:03.307Z,67.3
2023-06-10T06:03:51.133Z,67.8
2023-06-10T06:06:39.522Z,67.7
2023-06-10T06:09:27.056Z,67.3
2023-06-10T06:12:14.637Z,66.8
2023-06-10T06:15:02.376Z,67.5
2023-06-10T06:17:50.909Z,67.7
2023-06-10T06:20:39.646Z,65.9
2023-06-10T06:23:27.344Z,65.8
2023-06-10T06:26:16.115Z,66
2023-06-10T06:29:04.052Z,66.9
2023-06-10T06:31:51.856Z,67.3
2023-06-10T06:34:39.996Z,66.3
2023-06-10T06:37:27.468Z,65.5
2023-06-10T06:40:14.915Z,65.2
2023-06-10T06:43:03.163Z,64.8
2023-06-10T06:45:50.874Z,63.6
2023-06-10T06:48:39.513Z,62.5
2023-06-10T06:51:27.106Z,63.3
2023-06-10T06:54:15.186Z,63.3
2023-06-10T06:57:02.584Z,63.3
2023-06-10T06:59:51.740Z,63.4
2023-06-10T07:02:40.045Z,63.4
2023-06-10T07:05:27.654Z,62.2
2023-06-10T07:08:16.586Z,63.2
2023-06-10T07:11:04.260Z,62.5
2023-06-10T07:13:52.113Z,63
2023-06-10T07:16:39.958Z,63
2023-06-10T07:19:27.405Z,62.1
2023-06-10T07:22:15.209Z,61.5
2023-06-10T07:25:02.736Z,61.2
2023-06-10T07:27:51.419Z,60.7
2023-06-10T07:30:40.377Z,61.4
2023-06-10T07:33:27.809Z,62
2023-06-10T07:36:15.484Z,61.7
2023-06-10T07:39:03.149Z,62.3
2023-06-10T07:41:51.423Z,61.9
2023-06-10T07:44:42.660Z,61.8
2023-06-10T07:47:30.165Z,63.8
2023-06-10T07:50:19.161Z,61.5
2023-06-10T07:53:06.591Z,62.1
2023-06-10T07:55:55.058Z,61.4
2023-06-10T07:58:42.889Z,60.8
2023-06-10T08:01:30.646Z,60.3
2023-06-10T08:04:21.913Z,61.8
2023-06-10T08:07:10.268Z,61.5
2023-06-10T08:09:59.246Z,59.3
2023-06-10T08:12:47.230Z,60.1
2023-06-10T08:15:34.686Z,57.6
2023-06-10T08:18:22.152Z,56
2023-06-10T08:21:09.663Z,56.6
2023-06-10T08:23:57.767Z,55.9
2023-06-10T08:26:45.354Z,51.4
2023-06-10T08:29:32.858Z,53.6
2023-06-10T08:32:20.539Z,54.1
2023-06-10T08:35:08.546Z,53.6
2023-06-10T08:37:56.574Z,53
2023-06-10T08:40:44.166Z,47.8
2023-06-10T08:43:31.748Z,43.9
2023-06-10T08:46:23.509Z,44.5
2023-06-10T08:49:11.561Z,42
2023-06-10T08:52:06.754Z,41.4
2023-06-10T08:54:57.556Z,40.3
2023-06-10T08:57:48.493Z,40.6
2023-06-10T09:00:36.095Z,43.6
2023-06-10T09:03:24.191Z,43.2
2023-06-10T09:06:12.550Z,41.3
2023-06-10T09:09:03.348Z,43.2
2023-06-10T09:11:53.078Z,44
2023-06-10T09:14:40.645Z,44.4
2023-06-10T09:17:28.385Z,44.4
2023-06-10T09:20:16.579Z,42.6
2023-06-10T09:23:05.308Z,43.3
2023-06-10T09:25:53.664Z,45.1
2023-06-10T09:28:43.579Z,44.1
2023-06-10T09:31:34.173Z,44.4
2023-06-10T09:34:23.131Z,43.8
2023-06-10T09:37:12.461Z,43.8
2023-06-10T09:40:06.359Z,41.6
2023-06-10T09:42:56.090Z,41.4
2023-06-10T09:45:45.913Z,41.4
2023-06-10T09:48:35.350Z,41
2023-06-10T09:51:28.574Z,38.1
2023-06-10T09:54:16.082Z,38.9
2023-06-10T09:57:04.274Z,38
2023-06-10T09:59:54.751Z,38.9
2023-06-10T10:02:42.753Z,38.3
2023-06-10T10:05:33.084Z,38.5
2023-06-10T10:08:20.867Z,38.5
2023-06-10T10:11:09.310Z,38
2023-06-10T10:13:56.838Z,37.7
2023-06-10T10:16:44.647Z,37.9
2023-06-10T10:19:34.169Z,36.8
2023-06-10T10:22:30.287Z,35.1
2023-06-10T10:25:25.084Z,35.5
2023-06-10T10:28:16.073Z,34.4
2023-06-10T10:31:10.151Z,35.7
2023-06-10T10:34:02.393Z,35.6
2023-06-10T10:36:55.468Z,32.8
2023-06-10T10:39:43.822Z,34.1
2023-06-10T10:42:31.710Z,33.3
2023-06-10T10:45:20.657Z,33.8
2023-06-10T10:48:08.911Z,32.5
2023-06-10T10:50:57.606Z,32.9
2023-06-10T10:53:45.202Z,33.8
2023-06-10T10:56:57.577Z,33.3
2023-06-10T11:00:02.981Z,30.8
2023-06-10T11:02:53.987Z,31.3
2023-06-10T11:05:45.891Z,31
2023-06-10T11:08:35.168Z,32.9
2023-06-10T11:11:39.620Z,33.2
2023-06-10T11:14:36.401Z,31.9
2023-06-10T11:17:39.625Z,32.4
2023-06-10T11:20:55.663Z,31.5
2023-06-10T11:23:45.837Z,32.2
2023-06-10T11:26:36.182Z,30.1
2023-06-10T11:29:30.549Z,30.1
2023-06-10T11:32:18.325Z,30.1
2023-06-10T11:35:06.152Z,27.9
2023-06-10T11:37:54.341Z,27.7
2023-06-10T11:40:41.695Z,27.7
2023-06-10T11:43:34.059Z,27.1
2023-06-10T11:46:22.165Z,27
2023-06-10T11:49:12.386Z,27
2023-06-10T11:52:00.145Z,26.7
2023-06-10T11:54:51.167Z,27.3
2023-06-10T11:57:40.684Z,27.3
2023-06-10T12:00:29.126Z,27.3
2023-06-10T12:03:16.569Z,26.6
2023-06-10T12:06:05.217Z,26.7
2023-06-10T12:08:53.472Z,26.2
2023-06-10T12:11:42.102Z,27
2023-06-10T12:14:30.076Z,26.5
2023-06-10T12:17:51.521Z,25.3
2023-06-10T12:20:39.851Z,24.2
2023-06-10T12:23:28.254Z,23.9
2023-06-10T12:26:15.711Z,23.4
2023-06-10T12:29:03.147Z,24.2
2023-06-10T12:32:02.354Z,24.4
2023-06-10T12:34:53.089Z,23.9
2023-06-10T12:37:50.378Z,24.7
2023-06-10T12:40:42.560Z,24.8
2023-06-10T12:43:30.128Z,24.2
2023-06-10T12:46:18.093Z,25.3
2023-06-10T12:49:05.522Z,24.2
2023-06-10T12:51:53.174Z,23.3
2023-06-10T12:54:45.791Z,23.3
2023-06-10T12:57:33.410Z,23.1
2023-06-10T13:00:20.989Z,22.8
2023-06-10T13:03:11.890Z,21.4
2023-06-10T13:05:59.515Z,21.9
2023-06-10T13:08:46.908Z,22.5
2023-06-10T13:11:34.539Z,23.2
2023-06-10T13:14:22.766Z,22.8
2023-06-10T13:17:10.439Z,22.2
2023-06-10T13:19:57.933Z,21.4
2023-06-10T13:22:45.324Z,21.5
2023-06-10T13:25:33.231Z,21.6
2023-06-10T13:28:26.355Z,22
2023-06-10T13:31:13.991Z,21.2
2023-06-10T13:34:01.491Z,21.2
2023-06-10T13:36:50.186Z,20.1
2023-06-10T13:39:38.630Z,20.7
2023-06-10T13:42:26.082Z,20.9
2023-06-10T13:45:15.073Z,20.5
2023-06-10T13:48:02.959Z,20
2023-06-10T13:50:51.835Z,20.3
2023-06-10T13:53:40.178Z,20.5
2023-06-10T13:56:28.484Z,20.3
2023-06-10T13:59:17.082Z,19.9
2023-06-10T14:02:05.782Z,19.5
2023-06-10T14:04:54.346Z,19.8
2023-06-10T14:07:41.996Z,18.9
2023-06-10T14:10:29.583Z,18.5
2023-06-10T14:13:17.097Z,18.6
2023-06-10T14:16:04.668Z,19
2023-06-10T14:18:52.841Z,18
2023-06-10T14:21:41.093Z,18.3
2023-06-10T14:24:28.577Z,18.7
2023-06-10T14:27:16.080Z,18.5
2023-06-10T14:30:04.487Z,18.5
2023-06-10T14:32:53.517Z,18.1
2023-06-10T14:35:40.984Z,18.4
2023-06-10T14:38:28.812Z,18.2
2023-06-10T14:41:16.597Z,17.5
2023-06-10T14:44:04.173Z,17.3
2023-06-10T14:46:52.166Z,17.1
2023-06-10T14:49:40.279Z,16.3
2023-06-10T14:52:27.870Z,15.7
2023-06-10T14:55:15.248Z,17.1
2023-06-10T14:58:05.420Z,16.3
2023-06-10T15:00:53.120Z,16.8
2023-06-10T15:03:40.663Z,16.9
2023-06-10T15:06:29.297Z,16.5
2023-06-10T15:09:16.927Z,16.1
2023-06-10T15:12:04.834Z,16.3
2023-06-10T15:14:53.708Z,16.8
2023-06-10T15:17:41.140Z,15.5
2023-06-10T15:20:28.776Z,16.2
2023-06-10T15:23:16.565Z,16.2
2023-06-10T15:26:03.938Z,16.2
2023-06-10T15:28:52.177Z,16.1
2023-06-10T15:31:41.607Z,14.9
2023-06-10T15:34:29.748Z,14.5
2023-06-10T15:37:17.155Z,15.2
2023-06-10T15:40:05.364Z,14.5
2023-06-10T15:42:54.038Z,14.9
2023-06-10T15:45:41.813Z,14.5
2023-06-10T15:48:29.484Z,15.2
2023-06-10T15:51:16.937Z,14.7
2023-06-10T15:54:04.354Z,15
2023-06-10T15:56:52.204Z,14.9
2023-06-10T15:59:40.329Z,13.9
2023-06-10T16:02:27.856Z,14.2
2023-06-10T16:05:15.429Z,14
2023-06-10T16:08:03.719Z,13.9
2023-06-10T16:10:51.852Z,14
2023-06-10T16:13:41.269Z,13.7
2023-06-10T16:16:28.909Z,13
2023-06-10T16:19:16.387Z,13.9
2023-06-10T16:22:04.276Z,14
2023-06-10T16:24:52.612Z,14.2
2023-06-10T16:27:40.743Z,14.4
2023-06-10T16:30:28.281Z,14.2
2023-06-10T16:33:15.792Z,14.2
2023-06-10T16:36:03.497Z,15
2023-06-10T16:38:52.020Z,15.3
2023-06-10T16:41:40.502Z,15
2023-06-10T16:44:27.935Z,15.3
2023-06-10T16:47:15.440Z,15.5
2023-06-10T16:50:03.352Z,15.2
2023-06-10T16:52:52.849Z,15.4
2023-06-10T16:55:40.306Z,16
2023-06-10T16:58:27.904Z,16.6
2023-06-10T17:01:15.443Z,17
2023-06-10T17:04:03.136Z,17.4
2023-06-10T17:06:50.745Z,17.6
2023-06-10T17:09:40.750Z,18
2023-06-10T17:12:28.177Z,18.1
2023-06-10T17:15:15.648Z,18.1
2023-06-10T17:18:03.284Z,18
2023-06-10T17:20:51.324Z,18.7
2023-06-10T17:23:40.037Z,18.5
2023-06-10T17:26:27.594Z,19.7
2023-06-10T17:29:15.112Z,19.7
2023-06-10T17:32:02.743Z,19.8
2023-06-10T17:34:51.170Z,19.8
2023-06-10T17:37:39.787Z,19.6
2023-06-10T17:40:27.294Z,20.2
2023-06-10T17:43:14.847Z,20.1
2023-06-10T17:46:03.248Z,20.2
2023-06-10T17:48:51.475Z,21
2023-06-10T17:51:40.003Z,20.7
2023-06-10T17:54:27.452Z,20.5
2023-06-10T17:57:14.965Z,20.7
2023-06-10T18:00:02.659Z,20.6
2023-06-10T18:02:53.620Z,21.1
2023-06-10T18:05:41.444Z,21.9
2023-06-10T18:08:29.180Z,22.3
2023-06-10T18:11:20.744Z,22
2023-06-10T18:14:08.320Z,22.6
2023-06-10T18:16:55.914Z,23.1
2023-06-10T18:19:43.483Z,22.4
2023-06-10T18:22:31.269Z,23.1
2023-06-10T18:25:18.679Z,23.2
2023-06-10T18:28:06.412Z,23.9
2023-06-10T18:30:54.017Z,24.2
2023-06-10T18:33:41.758Z,24.1
2023-06-10T18:36:29.381Z,25.6
2023-06-10T18:39:16.956Z,26.4
2023-06-10T18:42:04.597Z,26.7
2023-06-10T18:44:54.045Z,25.9
2023-06-10T18:47:56.853Z,25.6
2023-06-10T18:50:45.557Z,27.7
2023-06-10T18:53:33.132Z,28.9
2023-06-10T18:56:20.665Z,28.3
2023-06-10T18:59:08.449Z,29.3
2023-06-10T19:01:56.006Z,29
2023-06-10T19:04:43.788Z,28.6
2023-06-10T19:07:31.316Z,28.8
2023-06-10T19:10:18.905Z,27.9
2023-06-10T19:13:08.063Z,28.5
2023-06-10T19:15:55.877Z,28.4
2023-06-10T19:18:43.533Z,28.8
2023-06-10T19:21:31.002Z,28.7
2023-06-10T19:24:18.642Z,28.9
2023-06-10T19:27:06.509Z,28.6
2023-06-10T19:29:54.125Z,28.7
2023-06-10T19:32:43.255Z,28.6
2023-06-10T19:35:30.932Z,29.5
2023-06-10T19:38:19.496Z,29.8
2023-06-10T19:41:07.084Z,29.9
2023-06-10T19:43:54.751Z,30.5
2023-06-10T19:46:42.388Z,30.5
2023-06-10T19:49:32.714Z,31.1
2023-06-10T19:52:20.322Z,31.3
2023-06-10T19:55:08.119Z,31.6
2023-06-10T19:57:56.343Z,31.9
2023-06-10T20:00:44.061Z,32.8
2023-06-10T20:03:31.807Z,32.8
2023-06-10T20:06:19.338Z,32.7
2023-06-10T20:09:06.896Z,33.3
2023-06-10T20:11:54.419Z,33.4
2023-06-10T20:14:43.041Z,33.5
2023-06-10T20:17:31.806Z,33.3
2023-06-10T20:20:20.196Z,34.1
2023-06-10T20:23:08.128Z,34.8
2023-06-10T20:25:55.886Z,35
2023-06-10T20:28:43.637Z,35.1
2023-06-10T20:31:32.678Z,35.1
2023-06-10T20:34:20.572Z,35.2
2023-06-10T20:37:08.465Z,35.6
2023-06-10T20:39:56.013Z,36
2023-06-10T20:42:43.572Z,36.1
2023-06-10T20:45:31.443Z,36.6
2023-06-10T20:48:18.987Z,37.5
2023-06-10T20:51:06.605Z,37.8
2023-06-10T20:53:54.157Z,38.6
2023-06-10T20:56:41.784Z,38.9
2023-06-10T20:59:30.190Z,39.7
2023-06-10T21:02:17.605Z,40.1
2023-06-10T21:05:05.311Z,40.1
2023-06-10T21:07:53.856Z,41.3
2023-06-10T21:10:41.414Z,41.3
2023-06-10T21:13:28.844Z,41.7
2023-06-10T21:16:17.209Z,41.7
2023-06-10T21:19:04.764Z,41.7
2023-06-10T21:21:52.472Z,42.7
2023-06-10T21:24:41.274Z,42.4
2023-06-10T21:27:28.856Z,42
2023-06-10T21:30:16.429Z,42.4
2023-06-10T21:33:04.511Z,43
2023-06-10T21:35:52.378Z,43.1
2023-06-10T21:38:40.787Z,43.4
2023-06-10T21:41:28.217Z,43.5
2023-06-10T21:44:15.865Z,43.6
2023-06-10T21:47:03.437Z,43.9
2023-06-10T21:49:52.498Z,43.6
2023-06-10T21:52:40.592Z,44.1
2023-06-10T21:55:28.253Z,44.6
2023-06-10T21:58:15.942Z,44.4
2023-06-10T22:01:03.446Z,44.5
2023-06-10T22:03:51.179Z,44.7
2023-06-10T22:06:39.856Z,45.4
2023-06-10T22:09:27.853Z,45.6
2023-06-10T22:12:15.760Z,46.2
2023-06-10T22:15:03.748Z,46
2023-06-10T22:17:53.674Z,46.3
2023-06-10T22:20:41.081Z,45.9
2023-06-10T22:23:28.654Z,46.1
2023-06-10T22:26:16.116Z,46.2
2023-06-10T22:29:03.729Z,46.5
2023-06-10T22:31:51.708Z,46.5
2023-06-10T22:34:40.879Z,46.8
2023-06-10T22:37:28.340Z,47
2023-06-10T22:40:15.949Z,47.6
2023-06-10T22:43:03.553Z,47.2
2023-06-10T22:45:51.444Z,47.4
2023-06-10T22:48:40.293Z,48.1
2023-06-10T22:51:27.985Z,48.1
2023-06-10T22:54:15.535Z,48.5
2023-06-10T22:57:03.198Z,48.5
2023-06-10T22:59:51.489Z,49
2023-06-10T23:02:39.900Z,49.1
2023-06-10T23:05:27.742Z,49.5
2023-06-10T23:08:15.240Z,49.3
2023-06-10T23:11:02.834Z,49.9
2023-06-10T23:13:50.553Z,49.7
2023-06-10T23:16:39.990Z,49.7
2023-06-10T23:19:31.149Z,49.7
2023-06-10T23:22:19.042Z,49.7
2023-06-10T23:25:08.981Z,49.5
2023-06-10T23:27:56.767Z,49.7
2023-06-10T23:30:44.358Z,49.6
2023-06-10T23:33:32.083Z,49.9
2023-06-10T23:36:19.647Z,50.2
2023-06-10T23:39:07.945Z,50.1
2023-06-10T23:41:56.076Z,50
2023-06-10T23:44:43.502Z,49.5
2023-06-10T23:47:31.171Z,49.8
2023-06-10T23:50:18.912Z,49.9
2023-06-10T23:53:06.981Z,49.8
2023-06-10T23:55:54.587Z,50.1
2023-06-10T23:58:42.147Z,49.8
